Time;durP1;ratioP1;P1;durP2;ratioP2;P2;SDS_P1;SDS_P2;PMS_P1;PMS_P2;Temp;Humidity;BMP_temperature;BMP_pressure;BME280_temperature;BME280_humidity;BME280_pressure;Samples;Min_cycle;Max_cycle;Signal;HPM_P1;HPM_P2
2024/01/02 00:00:49;;;;;;;1.90;1.80;;;;;;;-16.52;82.30;99134.28;4739235;30;20060;-80
2024/01/02 00:03:16;;;;;;;2.08;1.92;;;;;;;-16.57;82.39;99130.25;4748027;30;20483;-79
2024/01/02 00:05:43;;;;;;;1.85;1.75;;;;;;;-16.63;82.43;99132.19;4734054;30;20423;-81
2024/01/02 00:08:11;;;;;;;2.00;1.90;;;;;;;-16.68;82.69;99134.16;4768011;30;20142;-79
2024/01/02 00:10:38;;;;;;;1.85;1.75;;;;;;;-16.69;82.54;99137.63;4767522;30;20418;-79
2024/01/02 00:13:05;;;;;;;2.33;2.13;;;;;;;-16.70;82.70;99135.13;4767506;30;20052;-79
2024/01/02 00:15:33;;;;;;;1.90;1.80;;;;;;;-16.69;82.88;99121.31;4767235;30;20058;-78
2024/01/02 00:18:01;;;;;;;1.65;1.55;;;;;;;-16.70;82.63;99124.81;4767461;30;20110;-80
2024/01/02 00:20:29;;;;;;;1.88;1.77;;;;;;;-16.72;82.87;99131.78;4767174;30;20527;-78
2024/01/02 00:22:56;;;;;;;1.70;1.60;;;;;;;-16.65;82.76;99125.44;4765867;30;20078;-79
2024/01/02 00:25:24;;;;;;;2.00;1.90;;;;;;;-16.54;82.72;99130.09;4749407;30;20153;-80
2024/01/02 00:27:51;;;;;;;1.80;1.70;;;;;;;-16.55;82.75;99126.66;4758569;30;20075;-79
2024/01/02 00:30:18;;;;;;;1.80;1.70;;;;;;;-16.54;82.71;99130.09;4767537;30;20067;-79
2024/01/02 00:32:47;;;;;;;1.85;1.75;;;;;;;-16.54;82.45;99140.41;4767550;30;20105;-79
2024/01/02 00:35:16;;;;;;;1.83;1.73;;;;;;;-16.61;82.59;99137.28;4758296;30;20055;-79
2024/01/02 00:37:45;;;;;;;1.98;1.88;;;;;;;-16.71;82.70;99123.09;4749933;30;20060;-79
2024/01/02 00:40:13;;;;;;;1.83;1.73;;;;;;;-16.64;82.81;99138.25;4750370;30;20056;-79
2024/01/02 00:42:40;;;;;;;2.00;1.90;;;;;;;-16.67;82.82;99125.47;4749742;30;20048;-78
2024/01/02 00:45:08;;;;;;;1.60;1.50;;;;;;;-16.67;82.71;99124.66;4749469;30;20062;-79
2024/01/02 00:47:36;;;;;;;2.08;1.92;;;;;;;-16.71;82.43;99123.94;4747780;30;20056;-79
2024/01/02 00:50:04;;;;;;;2.20;2.00;;;;;;;-16.71;82.23;99123.94;4749744;30;20083;-79
2024/01/02 00:52:31;;;;;;;1.88;1.77;;;;;;;-16.74;82.05;99126.66;4749324;30;20055;-79
2024/01/02 00:55:01;;;;;;;1.75;1.65;;;;;;;-16.81;81.85;99127.88;4748511;30;20160;-79
2024/01/02 00:57:29;;;;;;;1.75;1.65;;;;;;;-16.88;81.95;99127.34;4726694;30;20059;-79
2024/01/02 00:59:57;;;;;;;1.90;1.80;;;;;;;-16.95;82.07;99135.44;4759104;30;20052;-79
2024/01/02 01:02:25;;;;;;;1.75;1.65;;;;;;;-17.00;81.97;99132.22;4756739;30;20076;-78
2024/01/02 01:04:53;;;;;;;2.03;1.90;;;;;;;-17.00;82.01;99132.22;4751531;30;20059;-78
2024/01/02 01:07:20;;;;;;;1.83;1.73;;;;;;;-16.97;82.01;99137.25;4752666;30;20052;-79
2024/01/02 01:09:51;;;;;;;1.90;1.80;;;;;;;-16.94;81.89;99137.09;4766605;30;20067;-79
2024/01/02 01:12:19;;;;;;;2.40;2.20;;;;;;;-17.01;81.94;99131.41;4752559;30;20082;-79
2024/01/02 01:14:47;;;;;;;1.85;1.75;;;;;;;-16.96;82.08;99129.44;4765902;30;20048;-78
2024/01/02 01:17:14;;;;;;;2.30;2.10;;;;;;;-17.00;82.06;99122.72;4752379;30;20063;-78
2024/01/02 01:19:42;;;;;;;2.40;2.20;;;;;;;-17.02;81.83;99128.88;4751940;30;20106;-78
2024/01/02 01:22:09;;;;;;;1.90;1.80;;;;;;;-17.12;81.87;99121.53;4750009;30;20050;-78
2024/01/02 01:24:37;;;;;;;1.90;1.80;;;;;;;-17.26;82.04;99119.56;4753284;30;20052;-78
2024/01/02 01:27:04;;;;;;;2.17;1.98;;;;;;;-17.31;82.10;99123.25;4753052;30;20118;-80
2024/01/02 01:29:31;;;;;;;1.73;1.63;;;;;;;-17.42;82.07;99122.88;4752544;30;20056;-79
2024/01/02 01:32:01;;;;;;;1.77;1.67;;;;;;;-17.46;81.84;99129.09;4752027;30;20464;-79
2024/01/02 01:34:31;;;;;;;1.90;1.80;;;;;;;-17.54;81.86;99124.25;4752274;30;20048;-78
2024/01/02 01:36:59;;;;;;;2.25;2.05;;;;;;;-17.60;81.86;99125.34;4752776;30;20082;-78
2024/01/02 01:39:27;;;;;;;1.90;1.80;;;;;;;-17.66;81.79;99117.88;4766474;30;20064;-79
2024/01/02 01:41:54;;;;;;;2.10;1.95;;;;;;;-17.72;81.97;99129.28;4751840;30;20052;-79
2024/01/02 01:44:22;;;;;;;2.03;1.92;;;;;;;-17.73;82.06;99124.19;4765924;30;20076;-78
2024/01/02 01:46:52;;;;;;;1.48;1.38;;;;;;;-17.68;82.09;99118.84;4752654;30;20095;-78
2024/01/02 01:49:20;;;;;;;2.05;1.95;;;;;;;-17.65;81.96;99124.69;4752402;30;20138;-78
2024/01/02 01:51:47;;;;;;;1.92;1.83;;;;;;;-17.71;81.72;99122.38;4737130;30;20091;-78
2024/01/02 01:54:16;;;;;;;2.30;2.10;;;;;;;-17.78;81.77;99118.38;4752174;30;20447;-79
2024/01/02 01:56:44;;;;;;;1.92;1.83;;;;;;;-17.75;81.88;99128.56;4736507;30;20056;-79
2024/01/02 01:59:12;;;;;;;1.77;1.67;;;;;;;-17.67;81.93;99131.66;4752132;30;20056;-78
2024/01/02 02:01:42;;;;;;;1.95;1.85;;;;;;;-17.64;81.79;99128.97;4752273;30;20114;-78
2024/01/02 02:04:09;;;;;;;2.10;1.98;;;;;;;-17.65;81.85;99123.84;4751336;30;20052;-79
2024/01/02 02:06:36;;;;;;;1.75;1.65;;;;;;;-17.58;81.68;99120.97;4735790;30;20060;-78
2024/01/02 02:09:04;;;;;;;1.55;1.45;;;;;;;-17.56;81.59;99121.72;4751497;30;20087;-78
2024/01/02 02:11:32;;;;;;;1.63;1.52;;;;;;;-17.53;81.64;99118.19;4751629;30;20508;-78
2024/01/02 02:13:59;;;;;;;1.60;1.50;;;;;;;-17.56;81.44;99116.56;4736067;30;20075;-78
2024/01/02 02:16:27;;;;;;;1.73;1.63;;;;;;;-17.54;81.31;99122.50;4736321;30;20052;-78
2024/01/02 02:18:55;;;;;;;1.70;1.60;;;;;;;-17.59;81.34;99113.31;4751712;30;20166;-78
2024/01/02 02:21:22;;;;;;;1.63;1.52;;;;;;;-17.67;81.33;99117.94;4751717;30;20146;-78
2024/01/02 02:23:50;;;;;;;1.92;1.83;;;;;;;-17.75;81.28;99108.78;4753305;30;20404;-78
2024/01/02 02:26:17;;;;;;;1.75;1.65;;;;;;;-17.84;81.43;99105.78;4753006;30;20064;-78
2024/01/02 02:28:44;;;;;;;1.80;1.70;;;;;;;-17.89;81.54;99105.16;4768441;30;20404;-78
2024/01/02 02:31:12;;;;;;;2.00;1.90;;;;;;;-17.98;81.59;99109.75;4768127;30;20606;-78
2024/01/02 02:33:40;;;;;;;1.75;1.65;;;;;;;-18.06;81.86;99106.66;4769269;30;20442;-78
2024/01/02 02:36:08;;;;;;;1.60;1.50;;;;;;;-18.11;81.84;99100.88;4769583;30;20150;-77
2024/01/02 02:38:35;;;;;;;1.83;1.73;;;;;;;-18.17;81.96;99099.38;4769072;30;20052;-79
2024/01/02 02:41:03;;;;;;;1.70;1.60;;;;;;;-18.20;82.02;99096.94;4769339;30;20562;-79
2024/01/02 02:43:31;;;;;;;1.67;1.58;;;;;;;-18.17;82.01;99096.81;4767768;30;20480;-79
2024/01/02 02:46:02;;;;;;;1.85;1.75;;;;;;;-18.15;81.86;99096.72;4762251;30;20159;-78
2024/01/02 02:48:29;;;;;;;1.67;1.58;;;;;;;-18.16;81.97;99100.22;4750040;30;20511;-78
2024/01/02 02:50:57;;;;;;;1.65;1.55;;;;;;;-18.15;81.91;99094.16;4751606;30;20062;-78
2024/01/02 02:53:24;;;;;;;1.50;1.40;;;;;;;-18.20;81.84;99085.78;4749994;30;20056;-78
2024/01/02 02:55:52;;;;;;;2.10;1.95;;;;;;;-18.19;82.01;99097.78;4752001;30;20431;-78
2024/01/02 02:58:19;;;;;;;1.70;1.60;;;;;;;-18.18;81.96;99089.97;4751749;30;20056;-79
2024/01/02 03:00:46;;;;;;;1.90;1.80;;;;;;;-18.19;82.04;99092.63;4751719;30;20490;-79
2024/01/02 03:03:14;;;;;;;1.60;1.50;;;;;;;-18.11;82.02;99085.41;4749690;30;20512;-78
2024/01/02 03:05:41;;;;;;;1.67;1.58;;;;;;;-18.05;82.17;99100.63;4752060;30;20159;-78
2024/01/02 03:08:09;;;;;;;1.92;1.83;;;;;;;-18.03;82.16;99103.97;4751773;30;20527;-79
2024/01/02 03:10:37;;;;;;;1.63;1.52;;;;;;;-18.04;81.78;99101.47;4751681;30;20064;-79
2024/01/02 03:13:04;;;;;;;1.60;1.50;;;;;;;-18.03;82.00;99093.66;4751685;30;20048;-78
2024/01/02 03:15:31;;;;;;;1.92;1.83;;;;;;;-18.04;81.84;99080.84;4750971;30;20071;-79
2024/01/02 03:17:59;;;;;;;1.67;1.58;;;;;;;-18.07;81.65;99083.56;4768851;30;20452;-79
2024/01/02 03:20:28;;;;;;;1.90;1.80;;;;;;;-18.03;81.98;99077.34;4751610;30;20052;-78
2024/01/02 03:22:55;;;;;;;1.67;1.58;;;;;;;-18.07;81.49;99081.81;4768473;30;20056;-79
2024/01/02 03:25:23;;;;;;;1.70;1.60;;;;;;;-18.09;81.45;99072.47;4768037;30;20558;-78
2024/01/02 03:27:50;;;;;;;1.80;1.70;;;;;;;-18.08;81.60;99066.41;4750709;30;20084;-79
2024/01/02 03:30:18;;;;;;;1.90;1.80;;;;;;;-18.07;81.40;99065.53;4750595;30;20059;-78
2024/01/02 03:32:45;;;;;;;1.60;1.50;;;;;;;-18.16;81.31;99066.72;4750460;30;20056;-79
2024/01/02 03:35:13;;;;;;;1.77;1.67;;;;;;;-18.20;81.37;99062.59;4749508;30;20059;-79
2024/01/02 03:37:40;;;;;;;2.08;1.95;;;;;;;-18.21;81.26;99059.19;4750315;30;20070;-77
2024/01/02 03:40:10;;;;;;;1.75;1.65;;;;;;;-18.23;81.10;99065.28;4750393;30;20512;-78
2024/01/02 03:42:37;;;;;;;1.80;1.70;;;;;;;-18.25;81.11;99057.66;4750258;30;20122;-79
2024/01/02 03:45:05;;;;;;;1.85;1.75;;;;;;;-18.27;81.14;99066.34;4750792;30;20143;-78
2024/01/02 03:47:33;;;;;;;1.58;1.48;;;;;;;-18.33;80.60;99074.31;4733281;30;20142;-78
2024/01/02 03:50:00;;;;;;;1.70;1.60;;;;;;;-18.41;80.63;99072.88;4732875;30;20102;-78
2024/01/02 03:52:31;;;;;;;1.73;1.63;;;;;;;-18.43;80.58;99077.25;4732385;30;20424;-77
2024/01/02 03:54:58;;;;;;;2.00;1.90;;;;;;;-18.45;80.55;99073.91;4732713;30;20918;-78
2024/01/02 03:57:27;;;;;;;1.55;1.45;;;;;;;-18.50;80.40;99068.09;4745808;30;20143;-78
2024/01/02 03:59:54;;;;;;;1.52;1.42;;;;;;;-18.52;80.47;99069.06;4733067;30;20119;-78
2024/01/02 04:02:22;;;;;;;1.67;1.58;;;;;;;-18.53;80.49;99063.09;4732767;30;20139;-79
2024/01/02 04:04:49;;;;;;;1.70;1.60;;;;;;;-18.51;80.39;99066.41;4733375;30;20428;-79
2024/01/02 04:07:17;;;;;;;1.92;1.83;;;;;;;-18.55;80.36;99066.63;4733125;30;20582;-79
2024/01/02 04:09:44;;;;;;;1.60;1.50;;;;;;;-18.61;80.13;99059.94;4732652;30;20055;-79
2024/01/02 04:12:11;;;;;;;1.95;1.85;;;;;;;-18.67;80.20;99058.47;4736966;30;20829;-79
2024/01/02 04:14:38;;;;;;;1.70;1.60;;;;;;;-18.69;80.20;99065.41;4750435;30;20468;-79
2024/01/02 04:17:06;;;;;;;1.60;1.50;;;;;;;-18.72;80.08;99067.28;4750106;30;20478;-79
2024/01/02 04:19:33;;;;;;;1.60;1.50;;;;;;;-18.77;79.99;99074.38;4750382;30;20060;-79
2024/01/02 04:22:00;;;;;;;1.60;1.50;;;;;;;-18.85;79.87;99072.94;4750320;30;20052;-78
2024/01/02 04:24:28;;;;;;;1.77;1.67;;;;;;;-18.92;80.06;99071.47;4749809;30;20056;-78
2024/01/02 04:26:55;;;;;;;1.73;1.63;;;;;;;-18.96;80.17;99079.38;4761098;30;20067;-79
2024/01/02 04:29:22;;;;;;;1.63;1.52;;;;;;;-18.98;80.25;99076.88;4767598;30;20134;-79
2024/01/02 04:31:49;;;;;;;1.88;1.77;;;;;;;-19.09;79.99;99068.72;4766242;30;20056;-79
2024/01/02 04:34:17;;;;;;;1.70;1.60;;;;;;;-19.15;79.98;99079.25;4767623;30;20117;-78
2024/01/02 04:36:44;;;;;;;1.70;1.60;;;;;;;-19.18;80.05;99090.47;4767068;30;20067;-79
2024/01/02 04:39:11;;;;;;;1.80;1.70;;;;;;;-19.22;80.01;99083.75;4767418;30;20107;-79
2024/01/02 04:41:39;;;;;;;1.90;1.80;;;;;;;-19.30;79.87;99083.22;4767094;30;20059;-79
2024/01/02 04:44:06;;;;;;;1.65;1.55;;;;;;;-19.32;80.24;99088.41;4767528;30;20059;-79
2024/01/02 04:46:35;;;;;;;1.67;1.58;;;;;;;-19.29;80.15;99093.47;4757497;30;20155;-79
2024/01/02 04:49:02;;;;;;;1.80;1.70;;;;;;;-19.35;80.02;99095.41;4750554;30;20091;-79
2024/01/02 04:51:29;;;;;;;1.65;1.55;;;;;;;-19.37;79.92;99092.88;4749746;30;20059;-79
2024/01/02 04:53:58;;;;;;;1.50;1.40;;;;;;;-19.39;79.91;99092.13;4750030;30;20056;-79
2024/01/02 04:56:25;;;;;;;1.80;1.70;;;;;;;-19.41;79.91;99095.63;4750025;30;20056;-79
2024/01/02 04:58:52;;;;;;;1.73;1.63;;;;;;;-19.43;79.90;99085.41;4733688;30;20056;-79
2024/01/02 05:01:20;;;;;;;1.58;1.48;;;;;;;-19.39;79.96;99086.97;4748495;30;20052;-78
2024/01/02 05:03:47;;;;;;;1.50;1.40;;;;;;;-19.40;79.62;99090.41;4734035;30;20060;-79
2024/01/02 05:06:18;;;;;;;1.70;1.60;;;;;;;-19.50;79.46;99086.50;4765861;30;20059;-79
2024/01/02 05:08:45;;;;;;;1.73;1.63;;;;;;;-19.53;79.51;99078.91;4746896;30;20143;-79
2024/01/02 05:11:12;;;;;;;1.60;1.50;;;;;;;-19.53;79.53;99078.91;4746949;30;20119;-79
2024/01/02 05:13:40;;;;;;;1.88;1.77;;;;;;;-19.59;79.51;99081.69;4746943;30;20056;-79
2024/01/02 05:16:10;;;;;;;1.50;1.40;;;;;;;-19.60;79.71;99085.16;4747029;30;20508;-79
2024/01/02 05:18:37;;;;;;;1.50;1.40;;;;;;;-19.63;79.51;99075.81;4747027;30;20089;-80
2024/01/02 05:21:05;;;;;;;1.83;1.73;;;;;;;-19.65;79.71;99085.31;4732865;30;20060;-80
2024/01/02 05:23:32;;;;;;;1.95;1.85;;;;;;;-19.72;79.72;99074.47;4746633;30;20079;-79
2024/01/02 05:25:59;;;;;;;1.65;1.55;;;;;;;-19.78;79.72;99072.09;4746890;30;20499;-79
2024/01/02 05:28:27;;;;;;;1.83;1.73;;;;;;;-19.80;79.71;99081.56;4746865;30;20432;-79
2024/01/02 05:30:57;;;;;;;1.85;1.75;;;;;;;-19.89;79.82;99071.63;4747094;30;20052;-79
2024/01/02 05:33:24;;;;;;;1.80;1.70;;;;;;;-19.97;80.00;99063.34;4731957;30;20064;-80
2024/01/02 05:35:51;;;;;;;2.05;1.95;;;;;;;-20.02;80.06;99063.50;4746860;30;20060;-79
2024/01/02 05:38:19;;;;;;;1.70;1.60;;;;;;;-20.06;80.14;99053.38;4747163;30;20148;-79
2024/01/02 05:40:46;;;;;;;1.80;1.70;;;;;;;-20.05;80.21;99055.88;4764885;30;20052;-79
2024/01/02 05:43:13;;;;;;;1.70;1.60;;;;;;;-20.07;80.34;99049.13;4767142;30;20055;-79
2024/01/02 05:45:40;;;;;;;1.60;1.50;;;;;;;-20.11;80.29;99050.97;4766797;30;20516;-78
2024/01/02 05:48:09;;;;;;;1.60;1.50;;;;;;;-20.09;80.55;99054.34;4751571;30;20060;-79
2024/01/02 05:50:39;;;;;;;1.60;1.50;;;;;;;-20.13;80.48;99052.75;4750923;30;20052;-79
2024/01/02 05:53:09;;;;;;;1.73;1.63;;;;;;;-20.17;80.53;99046.88;4750370;30;20543;-79
2024/01/02 05:55:36;;;;;;;1.65;1.55;;;;;;;-20.20;80.78;99041.84;4751731;30;20526;-79
2024/01/02 05:58:04;;;;;;;1.58;1.48;;;;;;;-20.20;80.88;99039.28;4752366;30;20129;-79
2024/01/02 06:00:31;;;;;;;1.70;1.60;;;;;;;-20.19;80.90;99040.13;4751667;30;20096;-80
2024/01/02 06:02:59;;;;;;;1.60;1.50;;;;;;;-20.22;80.95;99041.06;4751980;30;20082;-80
2024/01/02 06:05:26;;;;;;;1.58;1.48;;;;;;;-20.22;81.05;99040.22;4760078;30;20051;-79
2024/01/02 06:07:53;;;;;;;1.60;1.50;;;;;;;-20.23;81.06;99041.94;4769756;30;20121;-80
2024/01/02 06:10:21;;;;;;;1.60;1.50;;;;;;;-20.27;81.10;99027.53;4752778;30;20076;-79
2024/01/02 06:12:48;;;;;;;1.60;1.50;;;;;;;-20.29;81.04;99036.19;4750469;30;20507;-82
2024/01/02 06:15:16;;;;;;;1.60;1.50;;;;;;;-20.36;81.00;99026.09;4751976;30;20419;-81
2024/01/02 06:17:45;;;;;;;1.60;1.50;;;;;;;-20.39;80.79;99027.94;4752146;30;20071;-80
2024/01/02 06:20:17;;;;;;;1.60;1.50;;;;;;;-20.38;80.92;99027.06;4735751;30;20159;-81
2024/01/02 06:22:44;;;;;;;1.90;1.80;;;;;;;-20.38;81.03;99027.91;4750123;30;20055;-78
2024/01/02 06:25:12;;;;;;;1.63;1.52;;;;;;;-20.38;81.08;99024.47;4749785;30;20109;-80
2024/01/02 06:27:40;;;;;;;1.70;1.60;;;;;;;-20.47;80.80;99027.38;4751170;30;20075;-80
2024/01/02 06:30:08;;;;;;;1.60;1.50;;;;;;;-20.45;80.75;99023.03;4751432;30;20443;-80
2024/01/02 06:32:38;;;;;;;1.50;1.40;;;;;;;-20.33;80.74;99031.16;4748648;30;20117;-79
2024/01/02 06:35:08;;;;;;;1.80;1.70;;;;;;;-20.37;80.61;99029.59;4750848;30;20059;-79
2024/01/02 06:37:35;;;;;;;1.50;1.40;;;;;;;-20.30;80.59;99039.63;4750259;30;20143;-78
2024/01/02 06:40:06;;;;;;;1.60;1.50;;;;;;;-20.31;80.33;99035.41;4752953;30;20055;-81
2024/01/02 06:42:33;;;;;;;1.70;1.60;;;;;;;-20.32;80.25;99042.28;4751640;30;20105;-81
2024/01/02 06:45:00;;;;;;;1.73;1.63;;;;;;;-20.32;80.18;99042.28;4735565;30;20060;-80
2024/01/02 06:47:30;;;;;;;1.60;1.50;;;;;;;-20.35;80.26;99026.97;4734484;30;20078;-79
2024/01/02 06:49:58;;;;;;;1.70;1.60;;;;;;;-20.35;80.22;99038.06;4747776;30;20144;-79
2024/01/02 06:52:30;;;;;;;1.60;1.50;;;;;;;-20.33;80.13;99033.72;4750222;30;20127;-81
2024/01/02 06:54:57;;;;;;;2.05;1.95;;;;;;;-20.35;80.02;99032.09;4734822;30;20527;-81
2024/01/02 06:57:24;;;;;;;1.70;1.60;;;;;;;-20.34;79.86;99039.75;4750047;30;20513;-80
2024/01/02 06:59:52;;;;;;;1.70;1.60;;;;;;;-20.34;79.87;99031.22;4750486;30;20056;-80
2024/01/02 07:02:19;;;;;;;1.75;1.65;;;;;;;-20.37;79.84;99024.44;4752771;30;20599;-80
2024/01/02 07:04:47;;;;;;;1.70;1.60;;;;;;;-20.33;79.86;99038.00;4748342;30;20423;-80
2024/01/02 07:07:17;;;;;;;1.63;1.52;;;;;;;-20.40;79.48;99034.00;4749952;30;20068;-80
2024/01/02 07:09:47;;;;;;;1.60;1.50;;;;;;;-20.35;79.66;99026.97;4419234;29;9999803;-79
2024/01/02 07:12:17;;;;;;;1.88;1.77;;;;;;;-20.31;79.65;99033.66;4746930;30;20052;-80
2024/01/02 07:14:47;;;;;;;1.67;1.58;;;;;;;-20.24;79.67;99030.00;4747602;30;20045;-79
2024/01/02 07:17:19;;;;;;;1.67;1.58;;;;;;;-20.21;79.62;99023.94;4747936;30;20064;-79
2024/01/02 07:19:58;;;;;;;1.80;1.70;;;;;;;-20.17;79.49;99033.22;4747774;30;20052;-81
2024/01/02 07:22:29;;;;;;;1.90;1.80;;;;;;;-20.15;79.40;99026.28;4730009;30;20102;-80
2024/01/02 07:24:56;;;;;;;1.80;1.70;;;;;;;-20.16;79.38;99034.88;4746461;30;20154;-78
2024/01/02 07:27:23;;;;;;;1.73;1.63;;;;;;;-20.12;79.15;99029.59;4746531;30;20151;-79
2024/01/02 07:29:51;;;;;;;1.70;1.60;;;;;;;-20.09;79.26;99028.66;4747480;30;20044;-78
2024/01/02 07:32:18;;;;;;;1.60;1.50;;;;;;;-20.13;78.88;99027.91;4745690;30;20056;-78
2024/01/02 07:34:45;;;;;;;1.63;1.52;;;;;;;-20.14;78.97;99028.78;4747012;30;20056;-78
2024/01/02 07:37:18;;;;;;;1.80;1.70;;;;;;;-20.11;78.86;99025.28;4747109;30;20056;-79
2024/01/02 07:39:46;;;;;;;1.70;1.60;;;;;;;-20.12;78.70;99034.72;4745416;30;20393;-78
2024/01/02 07:42:13;;;;;;;1.60;1.50;;;;;;;-20.11;78.88;99026.13;4747728;30;20101;-79
2024/01/02 07:44:46;;;;;;;1.60;1.50;;;;;;;-20.10;78.62;99032.09;4629229;30;10000981;-77
2024/01/02 07:47:16;;;;;;;1.80;1.70;;;;;;;-20.14;78.70;99028.78;4749790;30;20766;-79
2024/01/02 07:49:43;;;;;;;1.85;1.75;;;;;;;-20.15;78.79;99032.28;4746752;30;20059;-79
2024/01/02 07:52:19;;;;;;;1.80;1.70;;;;;;;-20.20;78.62;99026.44;4748910;30;20419;-77
2024/01/02 07:54:47;;;;;;;1.70;1.60;;;;;;;-20.13;78.47;99021.94;4734655;30;20062;-79
2024/01/02 07:57:14;;;;;;;1.70;1.60;;;;;;;-20.20;78.18;99023.88;4749039;30;20585;-78
2024/01/02 07:59:41;;;;;;;1.80;1.70;;;;;;;-20.26;78.26;99020.69;4764089;30;20533;-79
2024/01/02 08:02:09;;;;;;;1.85;1.75;;;;;;;-20.29;77.81;99021.63;4750696;30;20048;-78
2024/01/02 08:04:36;;;;;;;1.58;1.48;;;;;;;-20.31;77.74;99023.38;4763636;30;20134;-78
2024/01/02 08:07:04;;;;;;;1.67;1.58;;;;;;;-20.24;77.78;99022.31;4748672;30;20526;-78
2024/01/02 08:09:33;;;;;;;1.80;1.70;;;;;;;-20.23;77.51;99016.25;4750341;30;20060;-78
2024/01/02 08:12:00;;;;;;;1.60;1.50;;;;;;;-20.17;77.53;99026.34;4763752;30;20551;-78
2024/01/02 08:14:28;;;;;;;1.70;1.60;;;;;;;-20.15;77.35;99027.13;4763403;30;20408;-78
2024/01/02 08:16:55;;;;;;;1.60;1.50;;;;;;;-20.08;77.09;99021.78;4750083;30;20068;-78
2024/01/02 08:19:23;;;;;;;1.83;1.73;;;;;;;-20.04;76.95;99019.06;4750180;30;20083;-78
2024/01/02 08:21:53;;;;;;;1.90;1.80;;;;;;;-20.02;76.79;99021.53;4750316;30;20076;-78
2024/01/02 08:24:20;;;;;;;1.77;1.67;;;;;;;-20.06;76.75;99023.41;4749706;30;20049;-78
2024/01/02 08:26:48;;;;;;;1.60;1.50;;;;;;;-20.04;76.81;99029.31;4763532;30;20122;-78
2024/01/02 08:29:15;;;;;;;1.73;1.63;;;;;;;-19.91;77.00;99037.44;4750222;30;20524;-78
2024/01/02 08:31:43;;;;;;;2.00;1.90;;;;;;;-19.85;76.72;99026.94;4749816;30;20122;-78
2024/01/02 08:34:11;;;;;;;1.98;1.88;;;;;;;-19.65;76.45;99033.91;4755955;30;20462;-78
2024/01/02 08:36:38;;;;;;;1.80;1.70;;;;;;;-19.59;76.12;99025.13;4751717;30;20051;-78
2024/01/02 08:39:06;;;;;;;2.05;1.95;;;;;;;-19.61;75.73;99026.94;4767889;30;20055;-78
2024/01/02 08:41:36;;;;;;;1.80;1.70;;;;;;;-19.59;75.94;99023.41;4767747;30;20064;-78
2024/01/02 08:44:04;;;;;;;1.70;1.60;;;;;;;-19.51;75.53;99025.72;4767600;30;20059;-78
2024/01/02 08:46:33;;;;;;;1.70;1.60;;;;;;;-19.56;75.16;99015.59;4741689;30;20063;-78
2024/01/02 08:49:00;;;;;;;2.08;1.98;;;;;;;-19.56;74.83;99012.19;4750129;30;20139;-78
2024/01/02 08:51:28;;;;;;;1.73;1.63;;;;;;;-19.61;74.63;99002.06;4748672;30;20053;-78
2024/01/02 08:53:57;;;;;;;1.60;1.50;;;;;;;-19.52;74.52;99003.44;4750282;30;20428;-78
2024/01/02 08:56:24;;;;;;;1.65;1.55;;;;;;;-19.43;74.53;98984.28;4750139;30;20064;-78
2024/01/02 08:58:53;;;;;;;1.88;1.77;;;;;;;-19.40;74.21;98987.56;4765421;30;20078;-78
2024/01/02 09:01:20;;;;;;;1.83;1.73;;;;;;;-19.31;73.94;98971.78;4752644;30;20114;-78
2024/01/02 09:03:48;;;;;;;1.75;1.65;;;;;;;-19.27;73.27;98987.94;4750193;30;20121;-78
2024/01/02 09:06:17;;;;;;;1.92;1.83;;;;;;;-19.28;73.03;98981.97;4749849;30;20151;-78
2024/01/02 09:08:51;;;;;;;1.92;1.83;;;;;;;-19.24;72.60;98978.38;4750180;30;20068;-78
2024/01/02 09:11:19;;;;;;;2.10;2.00;;;;;;;-19.22;72.60;98978.31;4749871;30;20063;-78
2024/01/02 09:13:47;;;;;;;1.80;1.70;;;;;;;-19.15;72.00;98986.63;4750141;30;20060;-78
2024/01/02 09:16:14;;;;;;;1.73;1.63;;;;;;;-19.05;71.81;98995.66;4750481;30;20071;-78
2024/01/02 09:18:46;;;;;;;1.60;1.50;;;;;;;-18.97;71.16;98985.91;4753033;30;20079;-78
2024/01/02 09:21:14;;;;;;;1.92;1.83;;;;;;;-18.89;70.98;98986.44;4754555;30;20048;-77
2024/01/02 09:23:41;;;;;;;1.70;1.60;;;;;;;-18.74;70.72;98982.38;4737130;30;20521;-78
2024/01/02 09:26:13;;;;;;;1.73;1.63;;;;;;;-18.73;70.35;98976.34;4752850;30;20155;-79
2024/01/02 09:28:42;;;;;;;1.80;1.70;;;;;;;-18.84;69.83;98997.38;4737235;30;20143;-78
2024/01/02 09:31:10;;;;;;;1.80;1.70;;;;;;;-18.76;70.08;98988.53;4737422;30;20071;-78
2024/01/02 09:33:38;;;;;;;1.60;1.50;;;;;;;-18.67;69.95;98988.13;4766766;30;20063;-78
2024/01/02 09:36:10;;;;;;;1.77;1.67;;;;;;;-18.65;69.63;98986.34;4770256;30;20567;-78
2024/01/02 09:38:38;;;;;;;1.80;1.70;;;;;;;-18.74;69.08;98992.69;4770483;30;20089;-78
2024/01/02 09:41:09;;;;;;;1.95;1.85;;;;;;;-18.70;69.27;98994.25;4770633;30;20070;-78
2024/01/02 09:44:04;;;;;;;2.10;2.00;;;;;;;-18.58;69.21;98990.31;4754082;30;20519;-78
2024/01/02 09:46:47;;;;;;;2.15;2.05;;;;;;;-18.43;68.82;98986.25;4761647;30;20060;-78
2024/01/02 09:49:32;;;;;;;2.17;2.05;;;;;;;-18.31;68.30;98979.78;4753348;30;20440;-78
2024/01/02 09:52:32;;;;;;;2.05;1.95;;;;;;;-18.19;68.02;98984.41;4751431;30;20059;-78
2024/01/02 09:55:11;;;;;;;1.83;1.73;;;;;;;-17.91;67.39;98984.06;4752387;30;20056;-78
2024/01/02 09:58:02;;;;;;;1.80;1.70;;;;;;;-17.88;66.76;98967.63;4765853;30;20114;-79
2024/01/02 10:00:51;;;;;;;1.70;1.60;;;;;;;-17.81;66.17;98969.03;4760418;30;20498;-78
2024/01/02 10:03:41;;;;;;;1.83;1.73;;;;;;;-17.81;66.11;98976.75;4754268;30;20064;-78
2024/01/02 10:06:21;;;;;;;1.80;1.70;;;;;;;-17.71;65.82;98971.09;4769952;30;20151;-78
2024/01/02 10:09:04;;;;;;;1.75;1.65;;;;;;;-17.79;65.27;98969.81;4769920;30;20535;-78
2024/01/02 10:11:48;;;;;;;1.70;1.60;;;;;;;-17.78;65.49;98968.84;4770014;30;20508;-77
2024/01/02 10:14:28;;;;;;;1.80;1.70;;;;;;;-17.65;65.11;98949.34;4754507;30;20056;-79
2024/01/02 10:17:10;;;;;;;1.75;1.65;;;;;;;-17.85;64.82;98959.75;4754533;30;20063;-79
2024/01/02 10:19:54;;;;;;;1.80;1.70;;;;;;;-18.13;64.85;98953.22;4769725;30;20052;-78
2024/01/02 10:22:28;;;;;;;1.73;1.63;;;;;;;-18.48;65.32;98947.00;4755043;30;20067;-78
2024/01/02 10:25:12;;;;;;;2.00;1.90;;;;;;;-18.64;66.06;98946.81;4754970;30;20074;-78
2024/01/02 10:28:07;;;;;;;1.60;1.50;;;;;;;-18.77;66.70;98956.81;4769957;30;20067;-78
2024/01/02 10:30:53;;;;;;;1.95;1.85;;;;;;;-19.02;67.31;98956.94;4754950;30;20064;-79
2024/01/02 10:33:46;;;;;;;2.37;2.17;;;;;;;-19.15;67.54;98958.34;4754215;30;20062;-78
2024/01/02 10:36:20;;;;;;;1.73;1.63;;;;;;;-19.27;68.05;98965.63;4753608;30;20535;-78
2024/01/02 10:39:15;;;;;;;1.70;1.60;;;;;;;-19.28;68.34;98963.97;4769688;30;20068;-78
2024/01/02 10:41:52;;;;;;;;;;;;;;;-19.31;68.56;98961.50;4752741;30;20059;-78
2024/01/02 10:44:45;;;;;;;1.80;1.70;;;;;;;-19.39;68.66;98960.97;4764892;30;19930;-78
2024/01/02 10:47:16;;;;;;;1.80;1.70;;;;;;;-19.45;68.83;98951.75;4753319;30;20052;-78
2024/01/02 10:50:08;;;;;;;1.80;1.70;;;;;;;-19.47;69.09;98950.13;4751110;30;20122;-78
2024/01/02 10:52:44;;;;;;;1.90;1.80;;;;;;;-19.54;69.13;98958.97;4696303;30;20518;-78
2024/01/02 10:55:38;;;;;;;1.80;1.70;;;;;;;-19.61;69.25;98953.22;4696621;30;20061;-78
2024/01/02 10:58:25;;;;;;;1.70;1.60;;;;;;;-19.70;69.61;98951.03;4696588;30;20061;-78
2024/01/02 11:01:03;;;;;;;1.85;1.75;;;;;;;-19.80;69.54;98953.09;4685588;30;20089;-78
2024/01/02 11:03:34;;;;;;;1.70;1.60;;;;;;;-19.81;70.09;98955.75;4664718;30;20411;-78
2024/01/02 11:06:22;;;;;;;1.95;1.85;;;;;;;-19.81;70.35;98945.47;4664933;30;20178;-78
2024/01/02 11:09:06;;;;;;;1.80;1.70;;;;;;;-19.78;70.26;98946.16;4679448;30;20073;-78
2024/01/02 11:11:36;;;;;;;1.80;1.70;;;;;;;-19.81;70.42;98941.16;4679271;30;20561;-78
2024/01/02 11:14:06;;;;;;;1.85;1.75;;;;;;;-19.82;70.67;98954.91;4679072;30;20109;-78
2024/01/02 11:16:34;;;;;;;1.60;1.50;;;;;;;-19.83;70.70;98947.25;4678984;30;20054;-78
2024/01/02 11:19:04;;;;;;;1.70;1.60;;;;;;;-19.88;70.60;98949.13;4664887;30;20058;-78
2024/01/02 11:21:40;;;;;;;1.65;1.55;;;;;;;-19.96;70.60;98945.13;4678842;30;20069;-78
2024/01/02 11:24:08;;;;;;;1.67;1.58;;;;;;;-20.02;70.64;98947.06;4664614;30;20489;-78
2024/01/02 11:26:40;;;;;;;1.98;1.88;;;;;;;-20.10;70.59;98934.50;4678723;30;20069;-78
2024/01/02 11:29:22;;;;;;;1.83;1.73;;;;;;;-20.09;70.59;98941.31;4711275;30;20436;-78
2024/01/02 11:31:52;;;;;;;1.67;1.58;;;;;;;-20.14;70.53;98938.91;4751085;30;20068;-77
2024/01/02 11:34:49;;;;;;;1.60;1.50;;;;;;;-20.16;70.64;98945.81;4750921;30;20139;-78
2024/01/02 11:37:38;;;;;;;1.73;1.63;;;;;;;-20.14;70.78;98941.47;4751125;30;20059;-78